Cedar Springs, Texas
Current Conditions -  °F | °C
As of 10:15 AM on Saturday 25 Oct 2014 (Local Time) from KT35 Reporting Station
Clear Clear  
Wind Chill: 74°   Ceiling: Unl
Heat Index: 74°   Visibility: 10mi
Dew Point: 61°   Wind: 5mph
Humidity: 62%   Direction: 220°SW
Pressure: 30.19"   Gusts: NA
Location:  31.0981°N, 96.99°W
Report Text: KT35 251515Z AUTO 22004KT 10SM CLR 24/16 A3019 RMK AO2 T02360160
Loading
Personal Weather Stations






























Interactive Weather Map
Tropical Storm Tracking
New forecast layout! Learn more

10-Day Weather Forecast

Advertisements
Track Severe Weather on mobile